Time;durP1;ratioP1;P1;durP2;ratioP2;P2;SDS_P1;SDS_P2;PMS_P1;PMS_P2;Temp;Humidity;BMP_temperature;BMP_pressure;BME280_temperature;BME280_humidity;BME280_pressure;Samples;Min_cycle;Max_cycle;Signal;HPM_P1;HPM_P2
2023/07/15 00:00:14;;;;;;;9.57;6.75;;;;;;;25.45;55.25;95189.38;5085398;28;19972;-79
2023/07/15 00:02:43;;;;;;;11.60;6.82;;;;;;;25.44;55.27;95188.59;5100571;28;20123;-78
2023/07/15 00:05:35;;;;;;;7.55;6.68;;;;;;;25.33;55.18;95177.47;5085842;28;20043;-78
2023/07/15 00:08:05;;;;;;;9.77;6.70;;;;;;;25.39;55.41;95187.38;5085090;28;20036;-78
2023/07/15 00:10:33;;;;;;;10.48;6.55;;;;;;;25.37;55.20;95175.91;5066786;28;20039;-78
2023/07/15 00:12:59;;;;;;;9.18;6.20;;;;;;;25.35;55.51;95189.00;5084943;28;20146;-78
2023/07/15 00:15:25;;;;;;;9.80;6.40;;;;;;;25.31;55.79;95185.69;5083705;28;20111;-78
2023/07/15 00:17:51;;;;;;;8.82;6.13;;;;;;;25.25;55.83;95194.19;5101381;28;20034;-78
2023/07/15 00:20:19;;;;;;;10.45;6.03;;;;;;;25.22;55.85;95181.19;5084094;28;20024;-78
2023/07/15 00:22:45;;;;;;;8.05;5.80;;;;;;;25.15;55.73;95174.09;5100541;28;20024;-79
2023/07/15 00:25:16;;;;;;;10.90;7.10;;;;;;;25.12;55.62;95172.34;5084807;28;20024;-79
2023/07/15 00:27:42;;;;;;;7.35;6.45;;;;;;;25.09;55.97;95179.03;5083720;28;20067;-79
2023/07/15 00:30:09;;;;;;;12.02;6.90;;;;;;;25.09;55.90;95187.47;5086440;28;20023;-78
2023/07/15 00:32:35;;;;;;;9.98;6.47;;;;;;;25.08;55.79;95188.00;5104211;28;20035;-79
2023/07/15 00:35:00;;;;;;;7.00;6.13;;;;;;;25.02;56.15;95181.63;5084982;28;20032;-79
2023/07/15 00:37:25;;;;;;;9.88;6.47;;;;;;;25.01;56.14;95186.50;5101316;28;20020;-79
2023/07/15 00:39:51;;;;;;;10.10;6.88;;;;;;;24.97;56.42;95179.63;5085441;28;20036;-78
2023/07/15 00:42:40;;;;;;;7.85;7.00;;;;;;;24.93;56.78;95190.41;5085940;28;20024;-79
2023/07/15 00:45:06;;;;;;;7.43;6.63;;;;;;;24.89;56.83;95197.09;5098663;28;20028;-79
2023/07/15 00:47:38;;;;;;;7.88;6.22;;;;;;;24.85;56.75;95195.84;5085993;28;20525;-78
2023/07/15 00:50:05;;;;;;;9.52;7.25;;;;;;;24.86;56.83;95191.75;5084163;28;20035;-79
2023/07/15 00:52:30;;;;;;;9.70;7.05;;;;;;;24.84;56.97;95191.53;5101005;28;20432;-78
2023/07/15 00:54:56;;;;;;;10.45;6.57;;;;;;;24.78;56.79;95193.63;5084227;28;20546;-79
2023/07/15 00:57:21;;;;;;;8.65;7.05;;;;;;;24.76;57.07;95194.13;5100687;28;20397;-79
2023/07/15 00:59:48;;;;;;;8.98;6.78;;;;;;;24.71;57.08;95191.38;5085218;28;20038;-79
2023/07/15 01:02:14;;;;;;;8.43;6.45;;;;;;;24.70;57.36;95201.09;5083339;28;20494;-79
2023/07/15 01:04:39;;;;;;;8.57;6.55;;;;;;;24.62;57.27;95196.06;5083994;28;20017;-79
2023/07/15 01:07:05;;;;;;;8.30;6.90;;;;;;;24.60;57.36;95204.25;5084747;28;20558;-79
2023/07/15 01:09:30;;;;;;;12.32;6.93;;;;;;;24.58;57.59;95209.63;5101077;28;20096;-78
2023/07/15 01:11:56;;;;;;;10.57;6.65;;;;;;;24.50;57.69;95207.91;5083496;28;20028;-78
2023/07/15 01:14:22;;;;;;;11.00;6.57;;;;;;;24.48;57.89;95205.59;5100566;28;20086;-80
2023/07/15 01:16:47;;;;;;;9.85;6.85;;;;;;;24.47;57.93;95206.91;5083537;28;20036;-80
2023/07/15 01:19:14;;;;;;;9.63;7.13;;;;;;;24.40;58.16;95204.66;5100266;28;20057;-79
2023/07/15 01:21:40;;;;;;;9.07;7.00;;;;;;;24.38;58.24;95206.47;5100806;28;20020;-79
2023/07/15 01:24:08;;;;;;;12.13;7.15;;;;;;;24.27;58.28;95196.06;5103435;28;20032;-79
2023/07/15 01:26:34;;;;;;;8.50;6.75;;;;;;;24.30;58.20;95206.22;5086008;28;20047;-80
2023/07/15 01:29:00;;;;;;;9.52;7.30;;;;;;;24.26;58.26;95203.72;5085003;28;20059;-79
2023/07/15 01:31:29;;;;;;;11.13;7.07;;;;;;;24.18;58.61;95205.53;5085282;28;20412;-79
2023/07/15 01:33:54;;;;;;;9.77;6.70;;;;;;;24.15;58.79;95203.78;5104023;28;20066;-79
2023/07/15 01:36:20;;;;;;;7.65;6.80;;;;;;;24.09;58.97;95201.00;5087124;28;20380;-80
2023/07/15 01:38:45;;;;;;;10.52;6.68;;;;;;;24.11;58.90;95209.66;5087622;28;20032;-79
2023/07/15 01:41:11;;;;;;;10.55;6.95;;;;;;;24.12;58.72;95202.00;5104030;28;20621;-79
2023/07/15 01:43:36;;;;;;;9.65;6.97;;;;;;;23.99;59.32;95199.78;5104477;28;20016;-79
2023/07/15 01:46:01;;;;;;;8.27;6.97;;;;;;;23.98;59.23;95201.09;5086877;28;20093;-79
2023/07/15 01:48:27;;;;;;;11.10;7.72;;;;;;;23.98;59.44;95203.88;5104545;28;20028;-79
2023/07/15 01:50:53;;;;;;;9.27;7.30;;;;;;;23.96;59.42;95200.06;5086530;28;20543;-79
2023/07/15 01:53:18;;;;;;;10.98;7.90;;;;;;;23.93;59.37;95206.72;5086450;28;20032;-79
2023/07/15 01:55:44;;;;;;;8.52;6.90;;;;;;;23.91;59.55;95209.28;5086852;28;20028;-79
2023/07/15 01:58:09;;;;;;;7.82;6.68;;;;;;;23.92;59.56;95208.78;5103654;28;20039;-78
2023/07/15 02:00:35;;;;;;;9.30;7.20;;;;;;;23.90;59.80;95193.72;5104214;28;20020;-80
2023/07/15 02:03:00;;;;;;;10.25;7.20;;;;;;;23.85;59.91;95198.06;5103197;28;20070;-79
2023/07/15 02:05:25;;;;;;;9.90;7.43;;;;;;;23.83;59.87;95195.78;5104477;28;20024;-80
2023/07/15 02:07:51;;;;;;;9.50;7.82;;;;;;;23.83;59.64;95195.78;5103429;28;20076;-80
2023/07/15 02:10:17;;;;;;;10.63;7.28;;;;;;;23.80;59.99;95196.84;5086634;28;20024;-79
2023/07/15 02:12:43;;;;;;;10.70;7.43;;;;;;;23.76;60.14;95201.97;5086215;28;20035;-78
2023/07/15 02:15:08;;;;;;;10.77;7.72;;;;;;;23.77;60.20;95206.28;5105735;28;20052;-79
2023/07/15 02:17:34;;;;;;;9.88;7.55;;;;;;;23.75;60.05;95208.84;5087327;28;20060;-79
2023/07/15 02:19:59;;;;;;;10.98;7.15;;;;;;;23.71;59.88;95205.56;5087586;28;20028;-79
2023/07/15 02:22:26;;;;;;;8.50;7.10;;;;;;;23.73;60.07;95207.84;5104249;28;20058;-79
2023/07/15 02:24:51;;;;;;;9.07;7.20;;;;;;;23.73;60.08;95210.63;5069183;28;20028;-79
2023/07/15 02:27:16;;;;;;;14.70;7.40;;;;;;;23.69;60.11;95207.38;5103922;28;20031;-79
2023/07/15 02:29:43;;;;;;;9.27;7.57;;;;;;;23.72;60.28;95217.53;5102913;28;20499;-78
2023/07/15 02:32:08;;;;;;;10.90;7.47;;;;;;;23.70;60.10;95212.44;5086006;28;20017;-79
2023/07/15 02:34:34;;;;;;;11.02;7.70;;;;;;;23.70;60.20;95214.50;5088020;28;20035;-79
2023/07/15 02:36:59;;;;;;;8.73;7.15;;;;;;;23.69;60.42;95215.78;5085561;28;20020;-80
2023/07/15 02:39:26;;;;;;;9.85;7.45;;;;;;;23.69;60.08;95212.97;5103109;28;20129;-81
2023/07/15 02:41:52;;;;;;;10.77;7.47;;;;;;;23.64;60.48;95208.91;5102466;28;20020;-80
2023/07/15 02:44:17;;;;;;;11.10;8.32;;;;;;;23.64;60.29;95216.56;5087105;28;20088;-80
2023/07/15 02:46:43;;;;;;;11.10;7.45;;;;;;;23.63;60.25;95218.63;5102398;28;20039;-80
2023/07/15 02:49:08;;;;;;;10.60;7.25;;;;;;;23.62;60.43;95210.66;5103136;28;20024;-80
2023/07/15 02:51:34;;;;;;;9.80;7.82;;;;;;;23.59;60.41;95224.44;5085637;28;20024;-80
2023/07/15 02:54:00;;;;;;;11.65;7.93;;;;;;;23.57;60.61;95223.47;5085278;28;20028;-80
2023/07/15 02:56:26;;;;;;;11.85;8.23;;;;;;;23.57;60.33;95223.47;5085731;28;20104;-80
2023/07/15 02:58:51;;;;;;;11.65;8.38;;;;;;;23.57;60.30;95218.59;5101982;28;20047;-79
2023/07/15 03:01:16;;;;;;;10.15;8.13;;;;;;;23.52;60.15;95213.00;5085848;28;20032;-80
2023/07/15 03:03:43;;;;;;;10.10;8.07;;;;;;;23.53;60.51;95217.34;5101973;28;20047;-80
2023/07/15 03:06:09;;;;;;;10.57;8.40;;;;;;;23.51;60.39;95229.09;5088307;28;20152;-80
2023/07/15 03:08:34;;;;;;;10.80;8.48;;;;;;;23.48;60.64;95218.88;5105480;28;20121;-80
2023/07/15 03:11:01;;;;;;;8.63;7.72;;;;;;;23.49;60.73;95228.06;5087133;28;20028;-80
2023/07/15 03:13:26;;;;;;;14.07;7.55;;;;;;;23.44;60.67;95226.78;5085895;28;20394;-80
2023/07/15 03:15:52;;;;;;;10.35;8.48;;;;;;;23.43;60.47;95236.50;5101948;28;20112;-80
2023/07/15 03:18:21;;;;;;;9.55;8.02;;;;;;;23.41;60.75;95224.28;5103141;28;20028;-80
2023/07/15 03:20:46;;;;;;;10.45;7.97;;;;;;;23.41;60.35;95227.06;5101405;28;20027;-81
2023/07/15 03:23:12;;;;;;;9.05;7.65;;;;;;;23.36;60.54;95219.44;5085806;28;20217;-81
2023/07/15 03:25:37;;;;;;;11.45;7.22;;;;;;;23.33;60.47;95221.22;5084626;28;20135;-80
2023/07/15 03:28:03;;;;;;;11.45;7.82;;;;;;;23.34;60.57;95219.97;5086772;28;20050;-80
2023/07/15 03:30:28;;;;;;;10.45;7.75;;;;;;;23.31;60.69;95230.16;5102111;28;20568;-79
2023/07/15 03:32:56;;;;;;;10.05;7.85;;;;;;;23.29;60.64;95227.09;5101600;28;20032;-79
2023/07/15 03:35:22;;;;;;;12.45;7.55;;;;;;;23.28;60.70;95219.19;5068501;28;20056;-79
2023/07/15 03:37:47;;;;;;;10.30;8.10;;;;;;;23.26;60.51;95218.94;5085673;28;20607;-80
2023/07/15 03:40:13;;;;;;;9.27;7.43;;;;;;;23.25;60.87;95229.41;5102414;28;20030;-79
2023/07/15 03:42:39;;;;;;;10.43;7.95;;;;;;;23.24;60.82;95227.13;5100887;28;20020;-80
2023/07/15 03:45:05;;;;;;;10.20;7.85;;;;;;;23.17;60.59;95219.22;5085284;28;20028;-80
2023/07/15 03:47:31;;;;;;;9.90;7.85;;;;;;;23.19;60.68;95228.66;5084762;28;20020;-80
2023/07/15 03:49:57;;;;;;;10.32;8.85;;;;;;;23.20;60.37;95224.56;5084829;28;20155;-79
2023/07/15 03:52:22;;;;;;;10.52;7.88;;;;;;;23.20;60.21;95218.19;5101834;28;20139;-79
2023/07/15 03:54:48;;;;;;;9.15;7.47;;;;;;;23.17;60.40;95222.81;5101270;28;20044;-80
2023/07/15 03:57:13;;;;;;;10.40;8.27;;;;;;;23.15;60.41;95230.19;5103851;28;20134;-80
2023/07/15 03:59:39;;;;;;;10.27;7.95;;;;;;;23.15;60.69;95225.34;5102959;28;20597;-80
2023/07/15 04:02:05;;;;;;;12.48;8.30;;;;;;;23.13;60.48;95219.50;5085624;28;20030;-79
2023/07/15 04:04:30;;;;;;;9.27;7.10;;;;;;;23.15;60.36;95224.59;5101894;28;20101;-79
2023/07/15 04:06:58;;;;;;;9.98;8.05;;;;;;;23.12;60.25;95231.22;5085105;28;20028;-79
2023/07/15 04:09:23;;;;;;;11.50;8.82;;;;;;;23.12;60.42;95234.03;5067990;28;20134;-80
2023/07/15 04:11:50;;;;;;;11.88;8.23;;;;;;;23.12;60.25;95232.00;5067226;28;20477;-80
2023/07/15 04:14:16;;;;;;;11.45;8.77;;;;;;;23.14;60.34;95249.06;5086342;28;20026;-79
2023/07/15 04:16:42;;;;;;;13.25;8.30;;;;;;;23.11;60.31;95249.31;5100284;28;20048;-80
2023/07/15 04:19:08;;;;;;;10.18;7.88;;;;;;;23.07;60.27;95260.03;5101499;28;20514;-79
2023/07/15 04:21:33;;;;;;;11.13;7.90;;;;;;;23.05;60.46;95263.34;5085104;28;20577;-80
2023/07/15 04:23:59;;;;;;;12.68;9.00;;;;;;;23.01;60.43;95255.19;5067685;28;20034;-78
2023/07/15 04:26:25;;;;;;;14.57;8.95;;;;;;;23.07;60.31;95260.03;5084182;28;20032;-78
2023/07/15 04:28:52;;;;;;;14.38;8.75;;;;;;;23.08;60.51;95269.97;5085349;28;20036;-79
2023/07/15 04:31:18;;;;;;;10.43;8.10;;;;;;;23.09;60.67;95260.28;5101466;28;20037;-79
2023/07/15 04:33:45;;;;;;;11.07;8.35;;;;;;;23.12;60.52;95262.06;5083391;28;20032;-79
2023/07/15 04:36:11;;;;;;;14.02;8.70;;;;;;;23.13;60.50;95269.22;5101201;28;20024;-79
2023/07/15 04:38:36;;;;;;;12.98;8.95;;;;;;;23.17;60.52;95266.88;5101094;28;20024;-80
2023/07/15 04:41:02;;;;;;;13.30;9.02;;;;;;;23.13;60.26;95258.75;5084419;28;20106;-79
2023/07/15 04:43:27;;;;;;;12.35;7.85;;;;;;;23.20;60.37;95263.84;5100902;28;20417;-79
2023/07/15 04:45:52;;;;;;;11.57;8.50;;;;;;;23.17;60.54;95264.88;5101238;28;20038;-79
2023/07/15 04:48:18;;;;;;;11.32;9.65;;;;;;;23.07;60.63;95251.63;5101372;28;20067;-79
2023/07/15 04:50:45;;;;;;;11.90;9.00;;;;;;;23.24;60.75;95272.75;5105520;28;20095;-79
2023/07/15 04:53:10;;;;;;;12.38;8.95;;;;;;;23.23;60.74;95262.81;5102377;28;20052;-79
2023/07/15 04:55:36;;;;;;;10.88;8.65;;;;;;;23.32;61.09;95275.78;5100862;28;20530;-79
2023/07/15 04:58:03;;;;;;;13.13;9.23;;;;;;;23.36;60.63;95273.50;5085691;28;20315;-79
2023/07/15 05:00:29;;;;;;;13.30;9.68;;;;;;;23.37;60.50;95275.03;5083940;28;20111;-79
2023/07/15 05:02:54;;;;;;;12.73;9.75;;;;;;;23.41;60.45;95278.34;5085815;28;20115;-79
2023/07/15 05:05:20;;;;;;;11.32;9.55;;;;;;;23.40;60.71;95267.59;5101351;28;20468;-79
2023/07/15 05:07:45;;;;;;;14.43;9.88;;;;;;;23.43;60.48;95266.59;5087312;28;20032;-78
2023/07/15 05:10:11;;;;;;;13.23;9.93;;;;;;;23.46;60.74;95268.38;5088167;28;20028;-79
2023/07/15 05:12:37;;;;;;;13.93;9.82;;;;;;;23.49;60.61;95272.94;5089695;28;20099;-79
2023/07/15 05:15:03;;;;;;;10.68;9.55;;;;;;;23.48;60.58;95269.38;5089793;28;20075;-78
2023/07/15 05:17:28;;;;;;;13.93;10.52;;;;;;;23.52;60.32;95261.47;5089486;28;20028;-78
2023/07/15 05:19:54;;;;;;;15.15;9.75;;;;;;;23.58;60.55;95270.63;5105314;28;20022;-78
2023/07/15 05:22:19;;;;;;;12.48;9.38;;;;;;;23.61;60.17;95270.88;5089279;28;20054;-79
2023/07/15 05:24:45;;;;;;;12.32;10.80;;;;;;;23.66;60.17;95270.88;5104906;28;20055;-79
2023/07/15 05:27:10;;;;;;;20.40;11.48;;;;;;;23.67;60.58;95263.22;5089132;28;20600;-79
2023/07/15 05:29:36;;;;;;;14.20;10.45;;;;;;;23.71;60.29;95270.09;5087348;28;20031;-80
2023/07/15 05:32:02;;;;;;;14.70;10.13;;;;;;;23.73;60.07;95263.97;5104504;28;20059;-79
2023/07/15 05:34:28;;;;;;;13.77;10.93;;;;;;;23.75;60.18;95261.44;5088223;28;20075;-80
2023/07/15 05:36:53;;;;;;;13.60;10.35;;;;;;;23.81;60.20;95262.16;5086981;28;20059;-83
2023/07/15 05:39:19;;;;;;;13.70;10.77;;;;;;;23.83;60.22;95265.22;5088336;28;20403;-83
2023/07/15 05:41:45;;;;;;;17.42;11.50;;;;;;;23.86;60.60;95269.81;5110702;28;20871;-83
2023/07/15 05:44:10;;;;;;;14.75;10.95;;;;;;;23.92;60.15;95269.78;5088138;28;20032;-83
2023/07/15 05:46:36;;;;;;;11.48;10.27;;;;;;;23.97;60.44;95271.78;5104770;28;20437;-83
2023/07/15 05:49:03;;;;;;;14.13;10.13;;;;;;;24.00;59.85;95277.13;5105211;28;20073;-83
2023/07/15 05:51:29;;;;;;;13.75;10.27;;;;;;;24.12;59.69;95286.25;5087593;28;20035;-83
2023/07/15 05:53:55;;;;;;;16.45;10.50;;;;;;;24.15;59.63;95288.03;5070843;28;20557;-82
2023/07/15 05:56:20;;;;;;;14.82;10.10;;;;;;;24.21;59.79;95293.63;5087069;28;20119;-79
2023/07/15 05:58:46;;;;;;;13.27;9.70;;;;;;;24.30;59.69;95294.06;5087880;28;20021;-88
2023/07/15 06:01:11;;;;;;;15.13;10.07;;;;;;;24.28;59.73;95290.25;5104306;28;20028;-85
2023/07/15 06:03:37;;;;;;;14.43;10.25;;;;;;;24.31;59.51;95292.78;5089113;28;20513;-83
2023/07/15 06:06:02;;;;;;;15.73;10.05;;;;;;;24.34;59.08;95279.75;5104217;28;20108;-82
2023/07/15 06:08:28;;;;;;;14.45;10.15;;;;;;;24.42;58.88;95288.41;5069791;28;20511;-78
2023/07/15 06:10:54;;;;;;;14.80;10.70;;;;;;;24.51;58.78;95291.69;5086656;28;20032;-79
2023/07/15 06:13:19;;;;;;;12.88;10.57;;;;;;;24.57;58.73;95286.03;5069541;28;20081;-83
2023/07/15 06:15:51;;;;;;;12.30;10.98;;;;;;;24.57;58.40;95275.53;5103831;28;20075;-81
2023/07/15 06:18:17;;;;;;;15.70;10.80;;;;;;;24.58;58.34;95274.25;5103052;28;20024;-84
2023/07/15 06:20:42;;;;;;;14.15;11.00;;;;;;;24.60;58.24;95280.13;5086897;28;20024;-83
2023/07/15 06:23:08;;;;;;;14.95;11.00;;;;;;;24.64;58.08;95274.22;5086773;28;20054;-86
2023/07/15 06:25:34;;;;;;;17.38;11.18;;;;;;;24.65;57.84;95267.31;5088185;28;20020;-82
2023/07/15 06:27:59;;;;;;;12.85;10.02;;;;;;;24.76;58.06;95272.84;5103807;28;20024;-82
2023/07/15 06:30:26;;;;;;;13.30;10.80;;;;;;;24.79;58.14;95271.06;5069389;28;20024;-82
2023/07/15 06:32:51;;;;;;;13.10;10.55;;;;;;;24.88;57.62;95270.69;5109473;28;20067;-85
2023/07/15 06:35:17;;;;;;;14.00;10.45;;;;;;;24.92;57.84;95271.19;5104387;28;20093;-84
2023/07/15 06:37:46;;;;;;;19.05;12.23;;;;;;;25.00;57.33;95274.19;5086765;28;20028;-81
2023/07/15 06:40:14;;;;;;;16.77;11.68;;;;;;;25.09;57.18;95265.44;5103235;28;20032;-81
2023/07/15 06:42:39;;;;;;;12.75;10.80;;;;;;;25.21;57.21;95277.34;5103315;28;20097;-80
2023/07/15 06:45:05;;;;;;;15.40;10.90;;;;;;;25.24;56.89;95273.50;5087636;28;20020;-79
2023/07/15 06:47:31;;;;;;;14.82;10.98;;;;;;;25.29;56.83;95272.66;5102899;28;20471;-80
2023/07/15 06:49:56;;;;;;;14.68;10.75;;;;;;;25.36;57.01;95272.09;5086198;28;20487;-80
2023/07/15 06:52:21;;;;;;;15.30;10.55;;;;;;;25.50;56.29;95273.72;5102348;28;20047;-80
2023/07/15 06:54:47;;;;;;;14.60;11.07;;;;;;;25.53;56.24;95269.88;5085934;28;20024;-80
2023/07/15 06:57:12;;;;;;;15.70;10.63;;;;;;;25.55;55.99;95261.66;5086141;28;20012;-84
2023/07/15 06:59:38;;;;;;;15.55;11.65;;;;;;;25.68;56.03;95273.00;5086198;28;20593;-83
2023/07/15 07:02:03;;;;;;;17.13;11.05;;;;;;;25.73;55.87;95262.97;5102944;28;20037;-85
2023/07/15 07:04:28;;;;;;;14.35;11.05;;;;;;;25.83;55.71;95269.03;5104133;28;20099;-77
2023/07/15 07:06:54;;;;;;;14.68;11.15;;;;;;;25.93;55.42;95270.22;5103178;28;20024;-82
2023/07/15 07:09:19;;;;;;;18.02;10.60;;;;;;;25.99;54.66;95265.25;5087323;28;20032;-88
2023/07/15 07:11:44;;;;;;;16.73;11.68;;;;;;;26.12;54.19;95273.78;5102978;28;20103;-86
2023/07/15 07:14:10;;;;;;;19.15;11.73;;;;;;;26.21;54.60;95272.66;5087845;28;20035;-85
2023/07/15 07:16:35;;;;;;;15.07;10.52;;;;;;;26.32;54.61;95275.31;5087624;28;20536;-86
2023/07/15 07:19:01;;;;;;;14.48;10.68;;;;;;;26.42;54.21;95279.28;5086701;28;20020;-87
2023/07/15 07:21:26;;;;;;;14.40;10.60;;;;;;;26.48;54.02;95274.34;5069227;28;20024;-85
2023/07/15 07:23:55;;;;;;;17.40;11.18;;;;;;;26.60;53.46;95271.34;5114309;28;20028;-90
2023/07/15 07:26:20;;;;;;;15.32;10.32;;;;;;;26.70;53.20;95264.03;5093821;28;20028;-86
2023/07/15 07:28:46;;;;;;;16.63;11.30;;;;;;;26.77;53.26;95265.47;5103653;28;20027;-89
2023/07/15 07:31:12;;;;;;;17.98;10.15;;;;;;;26.89;53.18;95263.97;5069085;28;20383;-88
2023/07/15 07:33:40;;;;;;;17.60;12.30;;;;;;;26.94;53.21;95255.44;5069034;28;20028;-84
2023/07/15 07:36:05;;;;;;;19.02;11.48;;;;;;;27.06;52.97;95258.84;5085090;28;20433;-78
2023/07/15 07:38:31;;;;;;;12.40;10.70;;;;;;;27.13;52.57;95258.22;5086455;28;20027;-78
2023/07/15 07:41:04;;;;;;;14.18;9.77;;;;;;;27.27;51.49;95264.66;5083422;28;20105;-78
2023/07/15 07:43:29;;;;;;;16.38;9.45;;;;;;;27.35;51.05;95254.22;5084470;28;20024;-78
2023/07/15 07:45:54;;;;;;;15.00;9.90;;;;;;;27.44;49.05;95253.06;5086747;28;20107;-79
2023/07/15 07:48:20;;;;;;;11.68;8.90;;;;;;;27.43;49.01;95262.84;5084163;28;20407;-79
2023/07/15 07:50:45;;;;;;;12.07;9.43;;;;;;;27.51;49.39;95255.22;5101644;28;20032;-79
2023/07/15 07:53:10;;;;;;;13.18;8.98;;;;;;;27.62;49.28;95245.78;5084185;28;20024;-79
2023/07/15 07:55:36;;;;;;;13.38;9.63;;;;;;;27.68;49.26;95252.84;5085954;28;20056;-79
2023/07/15 07:58:02;;;;;;;10.43;8.50;;;;;;;27.86;49.10;95256.88;5085447;28;20035;-79
2023/07/15 08:00:28;;;;;;;14.75;8.75;;;;;;;27.98;49.21;95254.59;5085528;28;20176;-79
2023/07/15 08:02:53;;;;;;;14.90;8.75;;;;;;;28.07;48.26;95247.75;5086124;28;20527;-78
2023/07/15 08:05:19;;;;;;;9.88;8.88;;;;;;;28.22;48.20;95262.06;5083937;28;20051;-79
2023/07/15 08:07:44;;;;;;;12.23;9.45;;;;;;;28.30;48.03;95255.19;5085695;28;20047;-79
2023/07/15 08:10:10;;;;;;;14.93;9.85;;;;;;;28.38;47.61;95248.88;5083410;28;20108;-79
2023/07/15 08:12:35;;;;;;;13.82;9.25;;;;;;;28.55;47.02;95249.25;5067382;28;20453;-79
2023/07/15 08:15:01;;;;;;;13.65;8.82;;;;;;;28.63;46.82;95255.00;5101579;28;20048;-80
2023/07/15 08:17:26;;;;;;;14.38;9.52;;;;;;;28.79;46.64;95256.69;5085624;28;20016;-79
2023/07/15 08:19:52;;;;;;;13.10;9.25;;;;;;;28.82;46.56;95253.50;5085878;28;20401;-79
2023/07/15 08:22:17;;;;;;;11.48;9.32;;;;;;;28.88;46.64;95246.94;5084205;28;20032;-78
2023/07/15 08:24:43;;;;;;;12.77;9.07;;;;;;;29.01;46.48;95253.31;5084946;28;20568;-78
2023/07/15 08:27:09;;;;;;;14.10;9.55;;;;;;;29.13;46.04;95250.97;5100845;28;20089;-78
2023/07/15 08:29:34;;;;;;;14.10;9.30;;;;;;;29.25;45.42;95255.03;5101437;28;20016;-79
2023/07/15 08:31:59;;;;;;;10.98;9.57;;;;;;;29.28;45.04;95253.91;5083097;28;20383;-78
2023/07/15 08:34:25;;;;;;;13.07;10.02;;;;;;;29.42;45.15;95251.78;5084315;28;20394;-78
2023/07/15 08:36:51;;;;;;;12.98;9.50;;;;;;;29.53;43.75;95259.22;5100401;28;20024;-78
2023/07/15 08:39:16;;;;;;;11.73;9.07;;;;;;;29.46;43.84;95254.22;5100919;28;20144;-77
2023/07/15 08:41:42;;;;;;;13.25;9.32;;;;;;;29.58;44.43;95253.41;5084759;28;20073;-78
2023/07/15 08:44:07;;;;;;;16.23;8.82;;;;;;;29.67;44.01;95257.06;5088386;28;20585;-79
2023/07/15 08:46:33;;;;;;;12.80;8.77;;;;;;;29.76;43.32;95248.78;5089129;28;20108;-77
2023/07/15 08:48:59;;;;;;;12.15;8.80;;;;;;;29.80;43.79;95251.28;5087940;28;20034;-77
2023/07/15 08:51:31;;;;;;;13.48;7.88;;;;;;;29.86;43.46;95246.97;5105754;28;20046;-77
2023/07/15 08:53:57;;;;;;;11.65;9.18;;;;;;;30.01;43.58;95243.47;5104657;28;20024;-77
2023/07/15 08:56:24;;;;;;;13.95;9.00;;;;;;;30.12;42.83;95248.84;5088543;28;20521;-78
2023/07/15 08:58:50;;;;;;;13.00;8.52;;;;;;;30.28;42.43;95249.66;5104950;28;20104;-78
2023/07/15 09:01:15;;;;;;;9.70;7.90;;;;;;;30.28;41.65;95249.66;5088146;28;20068;-78
2023/07/15 09:03:41;;;;;;;13.38;8.70;;;;;;;30.39;42.14;95254.22;5089825;28;20595;-79
2023/07/15 09:06:07;;;;;;;12.07;8.35;;;;;;;30.42;42.58;95248.19;5088495;28;20043;-79
2023/07/15 09:08:33;;;;;;;12.02;8.63;;;;;;;30.56;41.69;95253.69;5088989;28;20445;-79
2023/07/15 09:10:59;;;;;;;11.18;7.88;;;;;;;30.62;42.08;95249.38;5104381;28;20056;-78
2023/07/15 09:13:32;;;;;;;15.20;9.05;;;;;;;30.77;42.26;95253.59;5105178;28;20036;-79
2023/07/15 09:15:58;;;;;;;11.27;8.63;;;;;;;30.89;41.28;95244.16;5087616;28;20148;-78
2023/07/15 09:18:24;;;;;;;14.50;8.60;;;;;;;30.99;41.51;95240.75;5105371;28;20298;-79
2023/07/15 09:20:50;;;;;;;8.88;7.93;;;;;;;31.15;40.79;95236.63;5088473;28;20024;-79
2023/07/15 09:23:16;;;;;;;11.10;8.07;;;;;;;31.31;40.38;95245.91;5087237;28;20095;-79
2023/07/15 09:26:08;;;;;;;11.80;8.25;;;;;;;31.38;40.58;95237.38;5071165;28;20036;-79
2023/07/15 09:28:37;;;;;;;12.57;8.40;;;;;;;31.48;40.27;95234.72;5069264;28;20201;-79
2023/07/15 09:31:03;;;;;;;12.20;8.57;;;;;;;31.57;39.76;95228.47;5104859;28;20073;-79
2023/07/15 09:33:39;;;;;;;11.38;8.45;;;;;;;31.78;39.78;95228.22;5087558;28;20081;-79
2023/07/15 09:36:05;;;;;;;11.45;8.32;;;;;;;31.85;39.19;95224.63;5087134;28;20028;-78
2023/07/15 09:38:35;;;;;;;10.75;7.90;;;;;;;32.02;39.49;95223.25;5104995;28;20024;-79
2023/07/15 09:41:02;;;;;;;12.35;8.90;;;;;;;32.06;38.88;95218.69;5103695;28;20059;-78
2023/07/15 09:43:48;;;;;;;14.00;8.40;;;;;;;32.15;39.71;95215.25;5104171;28;20029;-79
2023/07/15 09:46:15;;;;;;;11.15;7.93;;;;;;;32.28;39.03;95219.91;5086592;28;20490;-79
2023/07/15 09:48:42;;;;;;;12.82;8.68;;;;;;;32.43;38.85;95219.88;5088592;28;20472;-79
2023/07/15 09:51:10;;;;;;;9.65;8.65;;;;;;;32.56;38.34;95218.84;5088921;28;20028;-79
2023/07/15 09:53:36;;;;;;;13.02;8.68;;;;;;;32.70;36.86;95213.66;5102285;28;20065;-79
2023/07/15 09:56:05;;;;;;;13.57;8.07;;;;;;;32.81;37.31;95221.00;5104304;28;20115;-79
2023/07/15 09:58:32;;;;;;;13.05;8.45;;;;;;;32.94;37.26;95212.19;5088702;28;20111;-79
2023/07/15 10:01:11;;;;;;;14.93;8.95;;;;;;;33.13;36.83;95211.66;5104716;28;20028;-78
2023/07/15 10:03:52;;;;;;;9.52;8.52;;;;;;;33.32;36.63;95203.34;5087298;28;20028;-78
2023/07/15 10:06:18;;;;;;;11.63;9.02;;;;;;;33.41;36.64;95214.09;5087357;28;20024;-78
2023/07/15 10:08:47;;;;;;;10.25;8.75;;;;;;;33.49;36.85;95208.34;5104771;28;20520;-79
2023/07/15 10:11:13;;;;;;;10.48;8.82;;;;;;;33.63;35.49;95208.78;5088143;28;20019;-79
2023/07/15 10:13:39;;;;;;;11.38;8.73;;;;;;;33.71;35.62;95210.19;5104668;28;20035;-78
2023/07/15 10:16:04;;;;;;;10.55;8.70;;;;;;;33.80;36.14;95208.78;5086252;28;20048;-78
2023/07/15 10:18:31;;;;;;;12.00;8.55;;;;;;;33.92;35.85;95206.19;5104387;28;20027;-78
2023/07/15 10:20:58;;;;;;;12.35;8.82;;;;;;;34.08;34.84;95199.75;5086585;28;20024;-78
2023/07/15 10:23:30;;;;;;;13.18;9.55;;;;;;;34.17;34.73;95203.25;5103795;28;20117;-79
2023/07/15 10:26:01;;;;;;;11.97;7.90;;;;;;;34.27;34.93;95201.22;5086948;28;20027;-78
2023/07/15 10:28:30;;;;;;;12.67;8.67;;;;;;;34.27;34.94;95213.38;5087448;28;20266;-78
2023/07/15 10:31:15;;;;;;;11.00;7.75;;;;;;;34.34;35.05;95211.78;5086694;28;20032;-78
2023/07/15 10:33:57;;;;;;;11.60;7.38;;;;;;;34.48;34.13;95203.66;5086077;28;20168;-78
2023/07/15 10:36:41;;;;;;;13.10;8.32;;;;;;;34.56;33.92;95201.44;5069442;28;20031;-78
2023/07/15 10:39:11;;;;;;;12.68;9.70;;;;;;;34.66;33.67;95207.22;5103693;28;20546;-79
2023/07/15 10:41:57;;;;;;;13.57;8.65;;;;;;;34.70;33.92;95193.25;5087102;28;20106;-79
2023/07/15 10:44:23;;;;;;;11.93;9.02;;;;;;;34.83;33.93;95202.19;5086296;28;20403;-78
2023/07/15 10:47:02;;;;;;;11.63;8.50;;;;;;;34.92;33.75;95194.25;5102999;28;20082;-78
2023/07/15 10:49:29;;;;;;;15.23;8.35;;;;;;;34.98;33.42;95192.66;5087797;28;20726;-77
2023/07/15 10:51:55;;;;;;;9.40;7.90;;;;;;;35.07;33.53;95191.94;5086673;28;20059;-77
2023/07/15 10:54:26;;;;;;;10.20;7.80;;;;;;;35.21;33.05;95191.53;5068887;28;20137;-78
2023/07/15 10:56:51;;;;;;;11.02;8.07;;;;;;;35.27;33.13;95198.47;5086801;28;20060;-79
2023/07/15 10:59:17;;;;;;;10.73;7.85;;;;;;;35.45;32.06;95187.72;5085474;28;20128;-79
2023/07/15 11:01:43;;;;;;;8.98;7.40;;;;;;;35.57;32.08;95182.16;5087791;28;20474;-77
2023/07/15 11:04:10;;;;;;;11.27;8.27;;;;;;;35.63;31.95;95176.91;5068184;28;20073;-77
2023/07/15 11:06:36;;;;;;;12.00;7.63;;;;;;;35.65;31.65;95179.91;5086821;28;20036;-78
2023/07/15 11:09:17;;;;;;;13.38;7.65;;;;;;;35.75;30.53;95177.81;5068634;28;20070;-79
2023/07/15 11:11:43;;;;;;;10.52;7.35;;;;;;;35.87;31.33;95170.16;5085523;28;20020;-78
2023/07/15 11:14:28;;;;;;;11.43;7.78;;;;;;;35.97;30.99;95173.03;5086215;28;20054;-78
2023/07/15 11:16:58;;;;;;;12.40;7.97;;;;;;;36.01;30.94;95170.47;5067713;28;20491;-77
2023/07/15 11:19:27;;;;;;;11.30;7.97;;;;;;;36.02;30.95;95171.25;5085448;28;20012;-78
2023/07/15 11:21:53;;;;;;;13.05;7.55;;;;;;;36.03;30.67;95164.16;5067952;28;20032;-77